sensor_id;sensor_type;location;lat;lon;timestamp;pressure;altitude;pressure_sealevel;temperature;humidity
69593;BME280;56796;50.122;14.468;2023-08-01T00:15:12;970.41;;;18.95;76.72
69593;BME280;56796;50.122;14.468;2023-08-01T00:34:38;970.03;;;18.7;78.65
69593;BME280;56796;50.122;14.468;2023-08-01T00:54:04;969.63;;;18.35;81.64
69593;BME280;56796;50.122;14.468;2023-08-01T01:13:30;969.4;;;18.29;82.18
69593;BME280;56796;50.122;14.468;2023-08-01T01:33:00;969.1;;;18.29;83.04
69593;BME280;56796;50.122;14.468;2023-08-01T01:52:19;968.86;;;18.28;83.1
69593;BME280;56796;50.122;14.468;2023-08-01T02:11:46;968.48;;;18.14;83.1
69593;BME280;56796;50.122;14.468;2023-08-01T02:31:13;968.4;;;18.14;83.01
69593;BME280;56796;50.122;14.468;2023-08-01T02:50:39;968.19;;;17.94;84.94
69593;BME280;56796;50.122;14.468;2023-08-01T03:10:06;967.88;;;17.65;87.23
69593;BME280;56796;50.122;14.468;2023-08-01T03:29:31;967.73;;;17.54;88.3
69593;BME280;56796;50.122;14.468;2023-08-01T03:48:58;967.56;;;17.52;89.29
69593;BME280;56796;50.122;14.468;2023-08-01T04:08:24;967.43;;;17.56;89.61
69593;BME280;56796;50.122;14.468;2023-08-01T04:27:51;967.05;;;17.59;89.25
69593;BME280;56796;50.122;14.468;2023-08-01T04:47:18;966.95;;;17.6;89.82
69593;BME280;56796;50.122;14.468;2023-08-01T05:06:46;966.71;;;17.77;88.29
69593;BME280;56796;50.122;14.468;2023-08-01T05:26:13;966.52;;;18.02;86.05
69593;BME280;56796;50.122;14.468;2023-08-01T05:45:42;966.18;;;18.29;85.19
69593;BME280;56796;50.122;14.468;2023-08-01T06:05:14;966.12;;;18.53;84.18
69593;BME280;56796;50.122;14.468;2023-08-01T06:24:35;965.94;;;18.41;86.61
69593;BME280;56796;50.122;14.468;2023-08-01T06:44:02;965.85;;;18.33;88.56
69593;BME280;56796;50.122;14.468;2023-08-01T07:03:29;965.61;;;18.48;87.5
69593;BME280;56796;50.122;14.468;2023-08-01T07:22:57;965.71;;;18.53;88.2
69593;BME280;56796;50.122;14.468;2023-08-01T07:42:23;965.63;;;18.5;89.1
69593;BME280;56796;50.122;14.468;2023-08-01T08:01:50;965.6;;;18.29;91.91
69593;BME280;56796;50.122;14.468;2023-08-01T08:21:15;965.64;;;18.26;93.01
69593;BME280;56796;50.122;14.468;2023-08-01T08:40:43;965.68;;;18.35;92.97
69593;BME280;56796;50.122;14.468;2023-08-01T09:00:10;965.73;;;18.44;92
69593;BME280;56796;50.122;14.468;2023-08-01T09:19:37;965.65;;;18.67;90.42
69593;BME280;56796;50.122;14.468;2023-08-01T09:39:05;965.66;;;19.11;86.7
69593;BME280;56796;50.122;14.468;2023-08-01T09:58:34;965.53;;;19.76;83.86
69593;BME280;56796;50.122;14.468;2023-08-01T10:18:03;965.61;;;20.28;80.75
69593;BME280;56796;50.122;14.468;2023-08-01T10:57:00;964.94;;;20.78;76.15
69593;BME280;56796;50.122;14.468;2023-08-01T11:16:27;964.74;;;21.32;75.15
69593;BME280;56796;50.122;14.468;2023-08-01T11:35:58;964.69;;;21.56;72.36
69593;BME280;56796;50.122;14.468;2023-08-01T11:55:26;964.72;;;22.07;69.75
69593;BME280;56796;50.122;14.468;2023-08-01T12:15:00;964.64;;;23.44;64.22
69593;BME280;56796;50.122;14.468;2023-08-01T12:34:19;964.79;;;22.96;66.08
69593;BME280;56796;50.122;14.468;2023-08-01T12:53:47;964.81;;;22.56;66.91
69593;BME280;56796;50.122;14.468;2023-08-01T13:13:12;964.89;;;22.89;64.7
69593;BME280;56796;50.122;14.468;2023-08-01T13:32:38;965;;;22.12;65.54
69593;BME280;56796;50.122;14.468;2023-08-01T13:52:03;964.88;;;22.13;67.56
69593;BME280;56796;50.122;14.468;2023-08-01T14:11:30;964.96;;;21.58;68.55
69593;BME280;56796;50.122;14.468;2023-08-01T14:30:54;965.22;;;21.47;69.85
69593;BME280;56796;50.122;14.468;2023-08-01T14:50:21;965.17;;;21.8;69.3
69593;BME280;56796;50.122;14.468;2023-08-01T15:09:49;965.18;;;22.08;68.97
69593;BME280;56796;50.122;14.468;2023-08-01T15:29:15;965.41;;;21.8;69.27
69593;BME280;56796;50.122;14.468;2023-08-01T15:48:42;965.3;;;22.35;69.17
69593;BME280;56796;50.122;14.468;2023-08-01T16:08:12;965.05;;;22.49;68.58
69593;BME280;56796;50.122;14.468;2023-08-01T16:27:39;965.11;;;22.61;66.6
69593;BME280;56796;50.122;14.468;2023-08-01T16:47:07;965.4;;;21.56;64.69
69593;BME280;56796;50.122;14.468;2023-08-01T17:06:27;965.55;;;21.67;64.74
69593;BME280;56796;50.122;14.468;2023-08-01T17:25:54;965.9;;;21.44;63.12
69593;BME280;56796;50.122;14.468;2023-08-01T17:45:20;966.11;;;21.15;63.37
69593;BME280;56796;50.122;14.468;2023-08-01T18:04:46;966.51;;;20.9;64.79
69593;BME280;56796;50.122;14.468;2023-08-01T18:24:12;966.68;;;20.62;65.53
69593;BME280;56796;50.122;14.468;2023-08-01T18:43:38;966.91;;;20.12;67.18
69593;BME280;56796;50.122;14.468;2023-08-01T19:03:04;967.13;;;19.64;67.61
69593;BME280;56796;50.122;14.468;2023-08-01T19:22:30;967.72;;;19.16;68.97
69593;BME280;56796;50.122;14.468;2023-08-01T19:41:55;967.93;;;18.85;70.79
69593;BME280;56796;50.122;14.468;2023-08-01T20:01:21;968.15;;;18.67;71.48
69593;BME280;56796;50.122;14.468;2023-08-01T20:20:47;968.19;;;18.37;73.12
69593;BME280;56796;50.122;14.468;2023-08-01T20:40:14;968.37;;;18.02;75.09
69593;BME280;56796;50.122;14.468;2023-08-01T20:59:39;968.6;;;17.78;77.35
69593;BME280;56796;50.122;14.468;2023-08-01T21:19:06;968.71;;;17.67;79.22
69593;BME280;56796;50.122;14.468;2023-08-01T21:38:33;968.88;;;17.51;80.65
69593;BME280;56796;50.122;14.468;2023-08-01T21:58:00;968.93;;;17.32;82.14
69593;BME280;56796;50.122;14.468;2023-08-01T22:17:27;968.97;;;17.31;82.63
69593;BME280;56796;50.122;14.468;2023-08-01T22:36:55;969.14;;;17.19;83.54
69593;BME280;56796;50.122;14.468;2023-08-01T22:56:21;969.17;;;17.12;83.15
69593;BME280;56796;50.122;14.468;2023-08-01T23:15:47;969.18;;;17.1;82.74
69593;BME280;56796;50.122;14.468;2023-08-01T23:35:15;969.15;;;17.14;82.4
69593;BME280;56796;50.122;14.468;2023-08-01T23:54:42;969.12;;;17.08;82.51
